METAR Gardermoen

ENGM 251950Z 34006KT 290V030 CAVOK 18/04 Q1015 NOSIG

Webcam Kjeller

Webcam Eggemoen